ilmateenistus.ee keskkonnaagentuur.ee
EETN Tallinn
FTEO31 EETN 251700
TAF EETN 251730Z 2518/2618 18005KT 9999 BKN015 TEMPO 2519/2524 3000
    SHRA BKN006 SCT015CB TEMPO 2600/2606 1200 RASN BR OVC003 BECMG
    2606/2608 05012KT TEMPO 2606/2614 3000 SHSN BKN004 BKN015CB PROB40
    TEMPO 2610/2615 -FZDZ BECMG 2614/2616 2000 SN BKN004 OVC008=

METAR EETN 251920Z 17006KT 9999 SCT023 05/03 Q0994 TEMPO 5000 SHRA SCT015CB=
Tallinn
EEKA Kärdla
METAR EEKA 251850Z NIL=
Kärdla
EEKE Kuressaare
METAR EEKE 251920Z AUTO 22008KT 6000NDV -RA OVC006 05/04 Q0995=
Kuressaare
EEPU Pärnu
METAR EEPU 251920Z AUTO 20007KT 9999 FEW017/// SCT022/// OVC025/// 05/04 Q0996=
Pärnu
EETU Tartu
METAR EETU 251920Z AUTO 17005KT 9999 OVC070/// 06/03 Q0996=
Tartu
EEEI Ämari
METAR EEEI 251850Z 16006KT 130V190 9999 FEW022 05/03 Q0994=
Ämari
Kihnu
Ruhnu
Ridali
Viljandi